Time;durP1;ratioP1;P1;durP2;ratioP2;P2;SDS_P1;SDS_P2;PMS_P1;PMS_P2;Temp;Humidity;BMP_temperature;BMP_pressure;BME280_temperature;BME280_humidity;BME280_pressure;Samples;Min_cycle;Max_cycle;Signal;HPM_P1;HPM_P2
2022/12/22 03:27:52;;;;;;;;;;;;;;;;;;2197505;59;1275;-84
2022/12/22 03:30:25;;;;;;;;;;;;;;;;;;2194878;59;1635;-87
2022/12/22 03:32:58;;;;;;;;;;;;;;;;;;2196757;59;1470;-85
2022/12/22 03:35:35;;;;;;;;;;;;;;;;;;2197033;59;2248;-84
2022/12/22 03:38:08;;;;;;;;;;;;;;;;;;2196530;59;1940;-84
2022/12/22 03:40:42;;;;;;;;;;;;;;;;;;2195461;59;1258;-83
2022/12/22 03:49:12;;;;;;;;;;;;;;;;;;2196328;59;1097;-84
2022/12/22 03:51:48;;;;;;;;;;;;;;;;;;2196646;59;1271;-83
2022/12/22 03:54:22;;;;;;;;;;;;;;;;;;2198071;59;1296;-85
2022/12/22 03:56:55;;;;;;;;;;;;;;;;;;2195635;59;1942;-84
2022/12/22 03:59:29;;;;;;;;;;;;;;;;;;2196806;59;1267;-84
2022/12/22 04:02:02;;;;;;;;;;;;;;;;;;2196865;59;1490;-83
2022/12/22 04:04:35;;;;;;;;;;;;;;;;;;2198426;59;1370;-83
2022/12/22 04:07:12;;;;;;;;;;;;;;;;;;2196301;59;1318;-83
2022/12/22 04:12:53;;;;;;;;;;;;;;;;;;2196818;59;1256;-85
2022/12/22 04:12:54;;;;;;;;;;;;;;;;;;2196939;59;1493;-84
2022/12/22 04:15:28;;;;;;;;;;;;;;;;;;2194668;59;1304;-83
2022/12/22 04:18:02;;;;;;;;;;;;;;;;;;2196593;59;1973;-84
2022/12/22 04:20:35;;;;;;;;;;;;;;;;;;2193568;59;1216;-83
2022/12/22 04:23:11;;;;;;;;;;;;;;;;;;2195362;59;1200;-85
2022/12/22 04:25:44;;;;;;;;;;;;;;;;;;2198021;59;1216;-84
2022/12/22 04:28:18;;;;;;;;;;;;;;;;;;2196596;59;2539;-85
2022/12/22 04:30:54;;;;;;;;;;;;;;;;;;2196203;59;1489;-83
2022/12/22 04:33:27;;;;;;;;;;;;;;;;;;2193495;59;1511;-83
2022/12/22 04:36:01;;;;;;;;;;;;;;;;;;2196323;59;2582;-83
2022/12/22 04:38:37;;;;;;;;;;;;;;;;;;2197416;59;1936;-83
2022/12/22 04:41:10;;;;;;;;;;;;;;;;;;2195855;59;1478;-83
2022/12/22 04:43:43;;;;;;;;;;;;;;;;;;2196187;59;1322;-84
2022/12/22 04:46:16;;;;;;;;;;;;;;;;;;2195554;59;1270;-83
2022/12/22 04:48:50;;;;;;;;;;;;;;;;;;2196432;59;1284;-85
2022/12/22 04:51:23;;;;;;;;;;;;;;;;;;2195639;59;1275;-83
2022/12/22 04:54:00;;;;;;;;;;;;;;;;;;2197267;59;1232;-83
2022/12/22 04:56:36;;;;;;;;;;;;;;;;;;2195937;67;1200;-84
2022/12/22 04:59:09;;;;;;;;;;;;;;;;;;2195703;59;1937;-83
2022/12/22 05:01:42;;;;;;;;;;;;;;;;;;2196329;59;1282;-83
2022/12/22 05:04:16;;;;;;;;;;;;;;;;;;2196933;59;1211;-84
2022/12/22 05:06:50;;;;;;;;;;;;;;;;;;2197159;59;1203;-84
2022/12/22 05:09:26;;;;;;;;;;;;;;;;;;2193038;59;1163;-83
2022/12/22 05:11:59;;;;;;;;;;;;;;;;;;2195980;59;1189;-83
2022/12/22 05:14:33;;;;;;;;;;;;;;;;;;2196668;59;1301;-84
2022/12/22 05:17:06;;;;;;;;;;;;;;;;;;2196868;59;1354;-86
2022/12/22 05:19:40;;;;;;;;;;;;;;;;;;2197006;59;1934;-84
2022/12/22 05:22:15;;;;;;;;;;;;;;;;;;2193112;59;1298;-83
2022/12/22 05:24:53;;;;;;;;;;;;;;;;;;2197515;59;1203;-84
2022/12/22 05:27:26;;;;;;;;;;;;;;;;;;2196738;59;2242;-84
2022/12/22 05:29:59;;;;;;;;;;;;;;;;;;2197430;59;1323;-85
2022/12/22 05:32:34;;;;;;;;;;;;;;;;;;2196892;59;1357;-83
2022/12/22 05:35:08;;;;;;;;;;;;;;;;;;2196905;59;2278;-85
2022/12/22 05:37:42;;;;;;;;;;;;;;;;;;2197081;59;1932;-86
2022/12/22 05:40:18;;;;;;;;;;;;;;;;;;2195781;59;1510;-82
2022/12/22 05:42:52;;;;;;;;;;;;;;;;;;2195623;59;1227;-83
2022/12/22 05:45:25;;;;;;;;;;;;;;;;;;2195784;59;1575;-82
2022/12/22 05:47:59;;;;;;;;;;;;;;;;;;2195610;59;1208;-83
2022/12/22 05:50:32;;;;;;;;;;;;;;;;;;2191749;59;1297;-84
2022/12/22 05:53:06;;;;;;;;;;;;;;;;;;2196239;59;1148;-84
2022/12/22 05:55:42;;;;;;;;;;;;;;;;;;2195733;59;1276;-83
2022/12/22 05:58:18;;;;;;;;;;;;;;;;;;2193533;59;2166;-83
2022/12/22 06:00:51;;;;;;;;;;;;;;;;;;2199714;59;1249;-82
2022/12/22 06:03:25;;;;;;;;;;;;;;;;;;2200328;59;1263;-82
2022/12/22 06:05:58;;;;;;;;;;;;;;;;;;2199625;67;1233;-82
2022/12/22 06:08:31;;;;;;;;;;;;;;;;;;2195949;59;1519;-82
2022/12/22 06:11:07;;;;;;;;;;;;;;;;;;2199746;59;1249;-82
2022/12/22 06:13:41;;;;;;;;;;;;;;;;;;2197424;59;1681;-82
2022/12/22 06:16:14;;;;;;;;;;;;;;;;;;2199039;59;1487;-82
2022/12/22 06:18:47;;;;;;;;;;;;;;;;;;2200560;67;1955;-83
2022/12/22 06:21:23;;;;;;;;;;;;;;;;;;2205714;54;1780;-84
2022/12/22 06:24:05;;;;;;;;;;;;;;;;;;2197248;59;1425;-82
2022/12/22 06:26:45;;;;;;;;;;;;;;;;;;2195774;59;1149;-82
2022/12/22 06:29:21;;;;;;;;;;;;;;;;;;2195212;59;1082;-83
2022/12/22 06:32:01;;;;;;;;;;;;;;;;;;2196215;59;1657;-82
2022/12/22 06:34:37;;;;;;;;;;;;;;;;;;2196379;59;1578;-82
2022/12/22 06:37:13;;;;;;;;;;;;;;;;;;2197125;59;1242;-82
2022/12/22 06:39:49;;;;;;;;;;;;;;;;;;2196398;67;1996;-82
2022/12/22 06:45:37;;;;;;;;;;;;;;;;;;2197180;59;1198;-83
2022/12/22 06:48:13;;;;;;;;;;;;;;;;;;2196564;59;1257;-82
2022/12/22 06:51:02;;;;;;;;;;;;;;;;;;2196152;59;1224;-83
2022/12/22 06:53:38;;;;;;;;;;;;;;;;;;2195987;67;1188;-82
2022/12/22 06:56:15;;;;;;;;;;;;;;;;;;2196940;59;1332;-82
2022/12/22 06:59:24;;;;;;;;;;;;;;;;;;2189049;59;1967;-82
2022/12/22 07:02:16;;;;;;;;;;;;;;;;;;2196702;60;1289;-82
2022/12/22 07:04:54;;;;;;;;;;;;;;;;;;2196286;59;1125;-83
2022/12/22 07:07:43;;;;;;;;;;;;;;;;;;2196653;59;1266;-83
2022/12/22 07:10:56;;;;;;;;;;;;;;;;;;2194652;59;1244;-84
2022/12/22 07:16:27;;;;;;;;;;;;;;;;;;2195489;59;1946;-75
2022/12/22 07:19:00;;;;;;;;;;;;;;;;;;2194767;59;1934;-75
2022/12/22 07:21:33;;;;;;;;;;;;;;;;;;2195366;59;1510;-74
2022/12/22 07:24:07;;;;;;;;;;;;;;;;;;2196782;53;2172;-72
2022/12/22 07:26:40;;;;;;;;;;;;;;;;;;2191383;59;2110;-72
2022/12/22 07:29:13;;;;;;;;;;;;;;;;;;2190641;59;1794;-72
2022/12/22 07:31:49;;;;;;;;;;;;;;;;;;2191543;59;1629;-73
2022/12/22 07:34:22;;;;;;;;;;;;;;;;;;2193435;59;2113;-72
2022/12/22 07:36:55;;;;;;;;;;;;;;;;;;2195223;59;1666;-72
2022/12/22 07:39:28;;;;;;;;;;;;;;;;;;2192103;59;2259;-72
2022/12/22 07:44:51;;;;;;;;;;;;;;;;;;2195863;59;1271;-72
2022/12/22 07:47:26;;;;;;;;;;;;;;;;;;2196122;59;1257;-72
2022/12/22 07:52:49;;;;;;;;;;;;;;;;;;2196537;59;1158;-72
2022/12/22 07:55:22;;;;;;;;;;;;;;;;;;2195945;59;1585;-72
2022/12/22 07:57:56;;;;;;;;;;;;;;;;;;2192166;59;1483;-72
2022/12/22 08:00:29;;;;;;;;;;;;;;;;;;2195650;59;2002;-72
2022/12/22 08:03:05;;;;;;;;;;;;;;;;;;2195268;59;1270;-72
2022/12/22 08:05:39;;;;;;;;;;;;;;;;;;2192622;59;1418;-73
2022/12/22 08:08:12;;;;;;;;;;;;;;;;;;2195913;59;1677;-72
2022/12/22 08:10:45;;;;;;;;;;;;;;;;;;2195717;59;1995;-72
2022/12/22 08:13:19;;;;;;;;;;;;;;;;;;2196202;59;1251;-72
2022/12/22 08:15:52;;;;;;;;;;;;;;;;;;2196519;59;1144;-72
2022/12/22 08:18:28;;;;;;;;;;;;;;;;;;2195823;59;2005;-72
2022/12/22 08:21:01;;;;;;;;;;;;;;;;;;2195503;59;2274;-72
2022/12/22 08:23:35;;;;;;;;;;;;;;;;;;2197122;59;1304;-73
2022/12/22 08:26:10;;;;;;;;;;;;;;;;;;2195740;59;2131;-72
2022/12/22 08:28:46;;;;;;;;;;;;;;;;;;2192184;59;1911;-73
2022/12/22 08:31:19;;;;;;;;;;;;;;;;;;2192105;59;13791;-72
2022/12/22 08:33:56;;;;;;;;;;;;;;;;;;2192293;59;14326;-72
2022/12/22 08:36:30;;;;;;;;;;;;;;;;;;2193698;59;11717;-72
2022/12/22 08:39:04;;;;;;;;;;;;;;;;;;2192518;59;11688;-73
2022/12/22 08:41:53;;;;;;;;;;;;;;;;;;2192723;59;21698;-72
2022/12/22 08:44:27;;;;;;;;;;;;;;;;;;2193728;59;17914;-72
2022/12/22 08:47:01;;;;;;;;;;;;;;;;;;2194106;59;25729;-73
2022/12/22 08:49:37;;;;;;;;;;;;;;;;;;2194180;59;13210;-73
2022/12/22 08:52:10;;;;;;;;;;;;;;;;;;2193863;59;26177;-72
2022/12/22 08:54:43;;;;;;;;;;;;;;;;;;2193670;59;11953;-73
2022/12/22 08:57:16;;;;;;;;;;;;;;;;;;2194639;59;12300;-73
2022/12/22 08:59:49;;;;;;;;;;;;;;;;;;2193297;59;13668;-73
2022/12/22 09:02:22;;;;;;;;;;;;;;;;;;2194019;59;18303;-73
2022/12/22 09:04:58;;;;;;;;;;;;;;;;;;2194652;59;11744;-73
2022/12/22 09:07:32;;;;;;;;;;;;;;;;;;2193961;59;14105;-73
2022/12/22 09:10:05;;;;;;;;;;;;;;;;;;2193915;59;12481;-73
2022/12/22 09:12:38;;;;;;;;;;;;;;;;;;2193957;59;20882;-73
2022/12/22 09:15:13;;;;;;;;;;;;;;;;;;2193873;59;13622;-73
2022/12/22 09:17:47;;;;;;;;;;;;;;;;;;2193844;59;19255;-73
2022/12/22 09:20:22;;;;;;;;;;;;;;;;;;2194387;59;12504;-73
2022/12/22 09:22:56;;;;;;;;;;;;;;;;;;2194516;59;13058;-73
2022/12/22 09:25:29;;;;;;;;;;;;;;;;;;2194061;59;12945;-73
2022/12/22 09:28:02;;;;;;;;;;;;;;;;;;2195419;59;20865;-73
2022/12/22 09:30:35;;;;;;;;;;;;;;;;;;2193353;59;13616;-73
2022/12/22 09:33:08;;;;;;;;;;;;;;;;;;2194277;59;18578;-73
2022/12/22 09:35:45;;;;;;;;;;;;;;;;;;2192418;59;12022;-73
2022/12/22 09:38:18;;;;;;;;;;;;;;;;;;2193697;59;13047;-73
2022/12/22 09:40:52;;;;;;;;;;;;;;;;;;2191756;59;11970;-73
2022/12/22 09:43:28;;;;;;;;;;;;;;;;;;2189303;59;11924;-73
2022/12/22 09:46:01;;;;;;;;;;;;;;;;;;2193507;59;13427;-73
2022/12/22 09:48:37;;;;;;;;;;;;;;;;;;2193417;59;18931;-73
2022/12/22 09:51:16;;;;;;;;;;;;;;;;;;2194023;59;11805;-73
2022/12/22 09:53:52;;;;;;;;;;;;;;;;;;2193180;59;12367;-73
2022/12/22 09:56:27;;;;;;;;;;;;;;;;;;2192523;59;13213;-72
2022/12/22 09:59:02;;;;;;;;;;;;;;;;;;2193040;59;12880;-72
2022/12/22 10:01:40;;;;;;;;;;;;;;;;;;2192900;59;15250;-73
2022/12/22 10:04:17;;;;;;;;;;;;;;;;;;2190391;59;12888;-73
2022/12/22 10:06:57;;;;;;;;;;;;;;;;;;2193121;59;12643;-73
2022/12/22 10:09:32;;;;;;;;;;;;;;;;;;2192894;59;12396;-73
2022/12/22 10:12:06;;;;;;;;;;;;;;;;;;2193829;59;12208;-73
2022/12/22 10:14:40;;;;;;;;;;;;;;;;;;2191487;59;15595;-73
2022/12/22 10:17:17;;;;;;;;;;;;;;;;;;2193580;59;12598;-72
2022/12/22 10:19:51;;;;;;;;;;;;;;;;;;2192106;59;12422;-72
2022/12/22 10:22:31;;;;;;;;;;;;;;;;;;2190613;59;12174;-72
2022/12/22 10:25:07;;;;;;;;;;;;;;;;;;2193158;59;12816;-73
2022/12/22 10:27:40;;;;;;;;;;;;;;;;;;2193028;59;14028;-73
2022/12/22 10:30:20;;;;;;;;;;;;;;;;;;2192816;59;12280;-72
2022/12/22 10:33:08;;;;;;;;;;;;;;;;;;2192729;59;15877;-72
2022/12/22 10:35:51;;;;;;;;;;;;;;;;;;2191731;59;23525;-73
2022/12/22 10:38:29;;;;;;;;;;;;;;;;;;2192862;59;15202;-73
2022/12/22 10:41:05;;;;;;;;;;;;;;;;;;2192300;59;12500;-72
2022/12/22 10:43:40;;;;;;;;;;;;;;;;;;2192618;59;12969;-72
2022/12/22 10:46:13;;;;;;;;;;;;;;;;;;2193206;59;12441;-72
2022/12/22 10:48:46;;;;;;;;;;;;;;;;;;2192955;59;17283;-72
2022/12/22 10:51:26;;;;;;;;;;;;;;;;;;2192790;59;19081;-72
2022/12/22 10:54:01;;;;;;;;;;;;;;;;;;2193722;59;18275;-72
2022/12/22 10:56:35;;;;;;;;;;;;;;;;;;2193348;59;12181;-72
2022/12/22 10:59:17;;;;;;;;;;;;;;;;;;2193589;59;13016;-72
2022/12/22 11:01:51;;;;;;;;;;;;;;;;;;2192983;59;14681;-72
2022/12/22 11:04:24;;;;;;;;;;;;;;;;;;2190303;59;13646;-72
2022/12/22 11:07:00;;;;;;;;;;;;;;;;;;2193459;59;12534;-72
2022/12/22 11:09:36;;;;;;;;;;;;;;;;;;2193276;59;11903;-72
2022/12/22 11:12:15;;;;;;;;;;;;;;;;;;2193156;59;12435;-72
2022/12/22 11:14:52;;;;;;;;;;;;;;;;;;2193358;59;12678;-72
2022/12/22 11:17:31;;;;;;;;;;;;;;;;;;2192804;59;31847;-72
2022/12/22 11:20:19;;;;;;;;;;;;;;;;;;2185195;59;217627;-72
2022/12/22 11:22:57;;;;;;;;;;;;;;;;;;2192171;59;12618;-72
2022/12/22 11:25:37;;;;;;;;;;;;;;;;;;2192618;59;15685;-73
2022/12/22 11:28:18;;;;;;;;;;;;;;;;;;2193319;59;12868;-72
2022/12/22 11:34:20;;;;;;;;;;;;;;;;;;2188475;59;13826;-73
2022/12/22 11:37:03;;;;;;;;;;;;;;;;;;2188250;59;13270;-73
2022/12/22 11:39:39;;;;;;;;;;;;;;;;;;2192351;59;14891;-73
2022/12/22 11:42:23;;;;;;;;;;;;;;;;;;2191716;59;12076;-73
2022/12/22 11:45:02;;;;;;;;;;;;;;;;;;2190684;59;14126;-72
2022/12/22 11:47:40;;;;;;;;;;;;;;;;;;2191984;59;12471;-73
2022/12/22 11:50:29;;;;;;;;;;;;;;;;;;2193188;59;15609;-72
2022/12/22 11:53:11;;;;;;;;;;;;;;;;;;2192480;59;12492;-73
2022/12/22 11:55:46;;;;;;;;;;;;;;;;;;2192420;59;12738;-73
2022/12/22 11:58:41;;;;;;;;;;;;;;;;;;2192017;59;13191;-73
2022/12/22 12:01:24;;;;;;;;;;;;;;;;;;2192294;59;12652;-73
2022/12/22 12:04:17;;;;;;;;;;;;;;;;;;2191949;59;15565;-73
2022/12/22 12:07:01;;;;;;;;;;;;;;;;;;2191822;59;17126;-73
2022/12/22 12:09:41;;;;;;;;;;;;;;;;;;2193654;59;14698;-72
2022/12/22 12:12:17;;;;;;;;;;;;;;;;;;2193325;59;12229;-73
2022/12/22 12:15:00;;;;;;;;;;;;;;;;;;2193454;59;12182;-73
2022/12/22 12:17:38;;;;;;;;;;;;;;;;;;2192515;59;11977;-72
2022/12/22 12:20:22;;;;;;;;;;;;;;;;;;2193640;59;13267;-73
2022/12/22 12:23:03;;;;;;;;;;;;;;;;;;2194177;59;12484;-73
2022/12/22 12:25:40;;;;;;;;;;;;;;;;;;2193453;59;12044;-73
2022/12/22 12:28:17;;;;;;;;;;;;;;;;;;2194052;59;12245;-73
2022/12/22 12:30:57;;;;;;;;;;;;;;;;;;2193174;59;12784;-73
2022/12/22 12:33:36;;;;;;;;;;;;;;;;;;2192773;59;18098;-73
2022/12/22 12:36:14;;;;;;;;;;;;;;;;;;2194038;59;14184;-73
2022/12/22 12:38:53;;;;;;;;;;;;;;;;;;2192178;59;20231;-73
2022/12/22 12:41:31;;;;;;;;;;;;;;;;;;2193649;59;12971;-73
2022/12/22 12:44:05;;;;;;;;;;;;;;;;;;2193070;59;14555;-72
2022/12/22 12:46:55;;;;;;;;;;;;;;;;;;2192698;59;13805;-73
2022/12/22 12:49:47;;;;;;;;;;;;;;;;;;2192617;59;23800;-73
2022/12/22 12:52:42;;;;;;;;;;;;;;;;;;2193724;59;12269;-72
2022/12/22 12:55:25;;;;;;;;;;;;;;;;;;2193319;59;18097;-72
2022/12/22 12:57:59;;;;;;;;;;;;;;;;;;2192840;59;13117;-73
2022/12/22 13:00:47;;;;;;;;;;;;;;;;;;2192249;59;12209;-73
2022/12/22 13:03:35;;;;;;;;;;;;;;;;;;2191943;59;11662;-73
2022/12/22 13:06:12;;;;;;;;;;;;;;;;;;2193517;59;16778;-73
2022/12/22 13:09:09;;;;;;;;;;;;;;;;;;2192241;59;13461;-73
2022/12/22 13:11:42;;;;;;;;;;;;;;;;;;2188841;59;13765;-73
2022/12/22 13:14:30;;;;;;;;;;;;;;;;;;2194238;59;11781;-72
2022/12/22 13:17:18;;;;;;;;;;;;;;;;;;2188716;59;13291;-73
2022/12/22 13:19:52;;;;;;;;;;;;;;;;;;2193132;59;17994;-73
2022/12/22 13:22:28;;;;;;;;;;;;;;;;;;2192559;59;17455;-72
2022/12/22 13:51:51;;;;;;;;;;;;;;;;;;2256450;59;2147;-85
2022/12/22 13:54:35;;;;;;;;;;;;;;;;;;2168070;59;1814819;-82
2022/12/22 13:57:25;;;;;;;;;;;;;;;;;;2194998;59;104817;-83
2022/12/22 14:00:02;;;;;;;;;;;;;;;;;;2043244;59;8386362;-83
2022/12/22 14:02:59;;;;;;;;;;;;;;;;;;2161018;59;2421133;-83
2022/12/22 14:05:34;;;;;;;;;;;;;;;;;;1505009;59;30687421;-83
2022/12/22 14:08:27;;;;;;;;;;;;;;;;;;2059065;59;6262255;-83
2022/12/22 14:11:09;;;;;;;;;;;;;;;;;;2163512;59;1805017;-83
2022/12/22 14:13:45;;;;;;;;;;;;;;;;;;2139499;59;2014797;-83
2022/12/22 14:16:29;;;;;;;;;;;;;;;;;;2194246;59;147453;-83
2022/12/22 14:19:08;;;;;;;;;;;;;;;;;;2109809;59;6067442;-82
2022/12/22 14:21:49;;;;;;;;;;;;;;;;;;2142525;59;1870479;-83
2022/12/22 14:24:43;;;;;;;;;;;;;;;;;;1743207;59;30576980;-83
2022/12/22 14:27:36;;;;;;;;;;;;;;;;;;1854422;59;16921504;-84
2022/12/22 14:30:22;;;;;;;;;;;;;;;;;;2189119;59;160372;-82
2022/12/22 14:36:44;;;;;;;;;;;;;;;;;;2155313;59;14006354;-84
2022/12/22 14:39:29;;;;;;;;;;;;;;;;;;2161871;59;2126882;-83
2022/12/22 14:42:30;;;;;;;;;;;;;;;;;;2162864;59;2561756;-82
2022/12/22 14:45:24;;;;;;;;;;;;;;;;;;2080032;59;2710107;-82
2022/12/22 14:48:41;;;;;;;;;;;;;;;;;;2095819;59;2470581;-83
2022/12/22 14:52:01;;;;;;;;;;;;;;;;;;1894201;59;13785160;-82
2022/12/22 14:55:24;;;;;;;;;;;;;;;;;;2165108;64;2645627;-82
2022/12/22 15:36:16;;;;;;;;;;;;;;;;;;2233075;54;1808;-76
2022/12/22 15:39:01;;;;;;;;;;;;;;;;;;2129468;59;2371140;-75
2022/12/22 15:41:58;;;;;;;;;;;;;;;;;;1982620;59;14367315;-75
2022/12/22 15:58:36;;;;;;;;;;;;;;;;;;2293600;54;1720;-73
2022/12/22 16:01:10;;;;;;;;;;;;;;;;;;2188478;59;13881;-73
2022/12/22 16:03:43;;;;;;;;;;;;;;;;;;2190366;59;13197;-73
2022/12/22 16:06:17;;;;;;;;;;;;;;;;;;2190718;59;11683;-73
2022/12/22 16:08:51;;;;;;;;;;;;;;;;;;2189534;59;12232;-73
2022/12/22 16:11:24;;;;;;;;;;;;;;;;;;2190661;59;11990;-73
2022/12/22 16:14:02;;;;;;;;;;;;;;;;;;2191668;59;18065;-73
2022/12/22 16:16:35;;;;;;;;;;;;;;;;;;2190758;59;24924;-73
2022/12/22 16:19:08;;;;;;;;;;;;;;;;;;2191021;59;37236;-74
2022/12/22 16:21:41;;;;;;;;;;;;;;;;;;2190082;59;12026;-73
2022/12/22 16:24:22;;;;;;;;;;;;;;;;;;2190917;59;11367;-73
2022/12/22 16:26:56;;;;;;;;;;;;;;;;;;2189454;59;12679;-73
2022/12/22 16:29:32;;;;;;;;;;;;;;;;;;2191686;59;16056;-73
2022/12/22 16:32:15;;;;;;;;;;;;;;;;;;2189665;59;11708;-73
2022/12/22 16:34:48;;;;;;;;;;;;;;;;;;2190688;59;12171;-73
2022/12/22 16:37:22;;;;;;;;;;;;;;;;;;2190811;59;14339;-73
2022/12/22 16:39:55;;;;;;;;;;;;;;;;;;2188823;59;11899;-73
2022/12/22 16:42:29;;;;;;;;;;;;;;;;;;2190553;59;12637;-73
2022/12/22 16:45:05;;;;;;;;;;;;;;;;;;2190055;59;12071;-73
2022/12/22 16:47:39;;;;;;;;;;;;;;;;;;2189233;59;19641;-73
2022/12/22 16:50:18;;;;;;;;;;;;;;;;;;2190274;59;11458;-73
2022/12/22 16:52:51;;;;;;;;;;;;;;;;;;2190434;59;15590;-73
2022/12/22 16:55:24;;;;;;;;;;;;;;;;;;2190171;59;19694;-73
2022/12/22 16:57:58;;;;;;;;;;;;;;;;;;2191404;59;12021;-73
2022/12/22 17:00:37;;;;;;;;;;;;;;;;;;2189599;59;17975;-73
2022/12/22 17:03:14;;;;;;;;;;;;;;;;;;2190468;59;13037;-73
2022/12/22 17:05:49;;;;;;;;;;;;;;;;;;2189383;59;12806;-73
2022/12/22 17:08:24;;;;;;;;;;;;;;;;;;2188402;59;15601;-73
2022/12/22 17:10:59;;;;;;;;;;;;;;;;;;2187670;59;14447;-73
2022/12/22 17:13:33;;;;;;;;;;;;;;;;;;2185560;59;23656;-73
2022/12/22 17:16:10;;;;;;;;;;;;;;;;;;2189151;59;13323;-73
2022/12/22 17:18:43;;;;;;;;;;;;;;;;;;2189473;59;18861;-73
2022/12/22 17:21:18;;;;;;;;;;;;;;;;;;2190496;59;33210;-73
2022/12/22 17:23:52;;;;;;;;;;;;;;;;;;2190137;59;12169;-73
2022/12/22 17:26:26;;;;;;;;;;;;;;;;;;2189881;59;12639;-73
2022/12/22 17:29:00;;;;;;;;;;;;;;;;;;2190978;59;11862;-73
2022/12/22 17:31:36;;;;;;;;;;;;;;;;;;2186379;59;18511;-73
2022/12/22 17:34:15;;;;;;;;;;;;;;;;;;2191077;59;20867;-73
2022/12/22 17:36:49;;;;;;;;;;;;;;;;;;2190543;59;12576;-73
2022/12/22 17:39:22;;;;;;;;;;;;;;;;;;2190554;59;11793;-73
2022/12/22 17:41:56;;;;;;;;;;;;;;;;;;2190133;59;12592;-73
2022/12/22 17:44:29;;;;;;;;;;;;;;;;;;2187623;59;12492;-73
2022/12/22 17:47:05;;;;;;;;;;;;;;;;;;2187470;59;16702;-73
2022/12/22 17:49:38;;;;;;;;;;;;;;;;;;2189561;59;16630;-73
2022/12/22 17:52:17;;;;;;;;;;;;;;;;;;2190587;59;13718;-74
2022/12/22 17:54:51;;;;;;;;;;;;;;;;;;2190273;59;13911;-73
2022/12/22 17:57:26;;;;;;;;;;;;;;;;;;2190308;59;12639;-73
2022/12/22 17:59:59;;;;;;;;;;;;;;;;;;2190680;59;12428;-73
2022/12/22 18:02:35;;;;;;;;;;;;;;;;;;2187263;59;13591;-73
2022/12/22 18:05:12;;;;;;;;;;;;;;;;;;2190847;59;11468;-73
2022/12/22 18:07:46;;;;;;;;;;;;;;;;;;2189914;59;33013;-73
2022/12/22 18:10:25;;;;;;;;;;;;;;;;;;2190489;59;12479;-73
2022/12/22 18:13:00;;;;;;;;;;;;;;;;;;2186307;59;36499;-73
2022/12/22 18:15:33;;;;;;;;;;;;;;;;;;2190536;59;11722;-73
2022/12/22 18:18:11;;;;;;;;;;;;;;;;;;2190529;59;14806;-73
2022/12/22 18:20:45;;;;;;;;;;;;;;;;;;2189242;59;13313;-73
2022/12/22 18:23:22;;;;;;;;;;;;;;;;;;2190637;59;15277;-74
2022/12/22 18:25:55;;;;;;;;;;;;;;;;;;2190419;59;11501;-73
2022/12/22 18:28:29;;;;;;;;;;;;;;;;;;2189572;59;20937;-73
2022/12/22 18:31:02;;;;;;;;;;;;;;;;;;2190702;59;12207;-73
2022/12/22 18:33:37;;;;;;;;;;;;;;;;;;2190430;59;17570;-73
2022/12/22 18:36:16;;;;;;;;;;;;;;;;;;2187838;59;12829;-73
2022/12/22 18:38:49;;;;;;;;;;;;;;;;;;2187195;59;12192;-73
2022/12/22 18:41:24;;;;;;;;;;;;;;;;;;2190227;59;14705;-73
2022/12/22 18:43:57;;;;;;;;;;;;;;;;;;2189697;59;11877;-73
2022/12/22 18:46:30;;;;;;;;;;;;;;;;;;2190096;59;13282;-73
2022/12/22 18:49:06;;;;;;;;;;;;;;;;;;2186329;59;13685;-73
2022/12/22 18:51:39;;;;;;;;;;;;;;;;;;2189419;59;12144;-73
2022/12/22 18:54:21;;;;;;;;;;;;;;;;;;2186717;59;13750;-73
2022/12/22 18:56:54;;;;;;;;;;;;;;;;;;2188670;59;15012;-73
2022/12/22 18:59:31;;;;;;;;;;;;;;;;;;2189167;59;11761;-73
2022/12/22 19:02:13;;;;;;;;;;;;;;;;;;2190169;59;12149;-73
2022/12/22 19:04:49;;;;;;;;;;;;;;;;;;2188269;59;22729;-73
2022/12/22 19:07:23;;;;;;;;;;;;;;;;;;2190388;59;13049;-73
2022/12/22 19:09:56;;;;;;;;;;;;;;;;;;2189372;59;14477;-73
2022/12/22 19:12:29;;;;;;;;;;;;;;;;;;2187117;59;14514;-73
2022/12/22 19:15:05;;;;;;;;;;;;;;;;;;2189657;59;11958;-73
2022/12/22 19:17:38;;;;;;;;;;;;;;;;;;2189148;59;11853;-73
2022/12/22 19:20:16;;;;;;;;;;;;;;;;;;2189827;59;16721;-73
2022/12/22 19:22:49;;;;;;;;;;;;;;;;;;2189548;59;18112;-74
2022/12/22 19:25:24;;;;;;;;;;;;;;;;;;2190091;59;16413;-73
2022/12/22 19:28:00;;;;;;;;;;;;;;;;;;2189907;59;13498;-73
2022/12/22 19:30:33;;;;;;;;;;;;;;;;;;2187652;59;12451;-73
2022/12/22 19:33:07;;;;;;;;;;;;;;;;;;2190317;59;15684;-73
2022/12/22 19:35:43;;;;;;;;;;;;;;;;;;2189838;59;26659;-73
2022/12/22 19:38:20;;;;;;;;;;;;;;;;;;2190328;59;12597;-73
2022/12/22 19:40:54;;;;;;;;;;;;;;;;;;2190363;59;13474;-73
2022/12/22 19:43:27;;;;;;;;;;;;;;;;;;2188449;59;13338;-74
2022/12/22 19:46:01;;;;;;;;;;;;;;;;;;2189224;59;12798;-73
2022/12/22 19:48:34;;;;;;;;;;;;;;;;;;2188936;59;11698;-73
2022/12/22 19:51:10;;;;;;;;;;;;;;;;;;2188178;59;13372;-73
2022/12/22 19:53:43;;;;;;;;;;;;;;;;;;2188881;59;29355;-73
2022/12/22 19:56:21;;;;;;;;;;;;;;;;;;2189800;59;13252;-73
2022/12/22 19:58:54;;;;;;;;;;;;;;;;;;2189001;59;14571;-73
2022/12/22 20:01:27;;;;;;;;;;;;;;;;;;2189350;59;12650;-73
2022/12/22 20:04:00;;;;;;;;;;;;;;;;;;2190023;59;12696;-73
2022/12/22 20:06:36;;;;;;;;;;;;;;;;;;2186168;59;18077;-73
2022/12/22 20:09:09;;;;;;;;;;;;;;;;;;2186602;59;12453;-73
2022/12/22 20:11:43;;;;;;;;;;;;;;;;;;2190360;59;13074;-73
2022/12/22 20:14:18;;;;;;;;;;;;;;;;;;2190413;59;14662;-73
2022/12/22 20:16:51;;;;;;;;;;;;;;;;;;2190297;59;16459;-73
2022/12/22 20:19:24;;;;;;;;;;;;;;;;;;2189663;59;12538;-74
2022/12/22 20:22:00;;;;;;;;;;;;;;;;;;2189827;59;24868;-73
2022/12/22 20:24:33;;;;;;;;;;;;;;;;;;2189653;59;11941;-73
2022/12/22 20:27:16;;;;;;;;;;;;;;;;;;2187215;59;12530;-73
2022/12/22 20:29:49;;;;;;;;;;;;;;;;;;2188585;59;11788;-73
2022/12/22 20:32:23;;;;;;;;;;;;;;;;;;2189620;59;11606;-73
2022/12/22 20:34:56;;;;;;;;;;;;;;;;;;2189304;59;13396;-73
2022/12/22 20:37:32;;;;;;;;;;;;;;;;;;2189760;59;14976;-73
2022/12/22 20:40:05;;;;;;;;;;;;;;;;;;2189746;59;12174;-73
2022/12/22 20:42:39;;;;;;;;;;;;;;;;;;2190328;59;14439;-73
2022/12/22 20:45:13;;;;;;;;;;;;;;;;;;2189378;59;12826;-73
2022/12/22 20:47:46;;;;;;;;;;;;;;;;;;2188478;59;14709;-73
2022/12/22 20:50:22;;;;;;;;;;;;;;;;;;2188472;59;11979;-75
2022/12/22 20:52:58;;;;;;;;;;;;;;;;;;2189152;59;29265;-73
2022/12/22 20:55:31;;;;;;;;;;;;;;;;;;2189933;59;21763;-73
2022/12/22 20:58:04;;;;;;;;;;;;;;;;;;2190926;59;14309;-73
2022/12/22 21:00:37;;;;;;;;;;;;;;;;;;2189994;59;11988;-73
2022/12/22 21:03:10;;;;;;;;;;;;;;;;;;2190267;59;12471;-73
2022/12/22 21:05:44;;;;;;;;;;;;;;;;;;2189182;59;21108;-73
2022/12/22 21:08:21;;;;;;;;;;;;;;;;;;2190180;59;16755;-73
2022/12/22 21:10:54;;;;;;;;;;;;;;;;;;2188761;59;19088;-73
2022/12/22 21:13:28;;;;;;;;;;;;;;;;;;2189493;59;20233;-73
2022/12/22 21:16:01;;;;;;;;;;;;;;;;;;2185729;59;11461;-73
2022/12/22 21:18:34;;;;;;;;;;;;;;;;;;2189529;59;14024;-73
2022/12/22 21:21:07;;;;;;;;;;;;;;;;;;2190166;59;24745;-73
2022/12/22 21:23:43;;;;;;;;;;;;;;;;;;2190093;59;13954;-73
2022/12/22 21:26:19;;;;;;;;;;;;;;;;;;2189219;59;25527;-73
2022/12/22 21:28:53;;;;;;;;;;;;;;;;;;2188963;59;13510;-73
2022/12/22 21:31:26;;;;;;;;;;;;;;;;;;2189499;59;13748;-73
2022/12/22 21:33:59;;;;;;;;;;;;;;;;;;2187085;59;15940;-73
2022/12/22 21:36:34;;;;;;;;;;;;;;;;;;2189774;59;12677;-72
2022/12/22 21:39:22;;;;;;;;;;;;;;;;;;2189289;59;13463;-72
2022/12/22 21:42:03;;;;;;;;;;;;;;;;;;2188385;59;13540;-72
2022/12/22 21:44:36;;;;;;;;;;;;;;;;;;2190306;59;12702;-72
2022/12/22 21:47:12;;;;;;;;;;;;;;;;;;2189218;59;12772;-72
2022/12/22 21:49:45;;;;;;;;;;;;;;;;;;2189369;59;12272;-72
2022/12/22 21:52:18;;;;;;;;;;;;;;;;;;2189060;59;11825;-72
2022/12/22 21:54:54;;;;;;;;;;;;;;;;;;2189478;59;15861;-72
2022/12/22 21:57:27;;;;;;;;;;;;;;;;;;2189747;59;12598;-70
2022/12/22 22:08:04;;;;;;;;;;;;;;;;;;2377413;54;1877;-74
2022/12/22 22:10:52;;;;;;;;;;;;;;;;;;2122400;59;4600448;-74
2022/12/22 22:13:25;;;;;;;;;;;;;;;;;;2191173;59;14096;-74
2022/12/22 22:15:58;;;;;;;;;;;;;;;;;;2193647;59;1235;-73
2022/12/22 22:18:31;;;;;;;;;;;;;;;;;;2194072;59;1250;-73
2022/12/22 22:21:04;;;;;;;;;;;;;;;;;;2196152;59;1140;-73
2022/12/22 22:23:38;;;;;;;;;;;;;;;;;;2197252;59;1936;-73
2022/12/22 22:26:14;;;;;;;;;;;;;;;;;;2196785;59;1308;-74
2022/12/22 22:28:47;;;;;;;;;;;;;;;;;;2197316;59;1308;-73
2022/12/22 22:31:20;;;;;;;;;;;;;;;;;;2196385;59;1709;-73
2022/12/22 22:33:53;;;;;;;;;;;;;;;;;;2195884;59;1344;-73
2022/12/22 22:36:26;;;;;;;;;;;;;;;;;;2196464;59;1242;-73
2022/12/22 22:38:59;;;;;;;;;;;;;;;;;;2195973;59;1349;-73
2022/12/22 22:41:35;;;;;;;;;;;;;;;;;;2196053;59;1237;-73
2022/12/22 22:44:08;;;;;;;;;;;;;;;;;;2195500;59;1936;-73
2022/12/22 22:46:42;;;;;;;;;;;;;;;;;;2196735;59;1167;-74
2022/12/22 22:49:15;;;;;;;;;;;;;;;;;;2194772;59;2063;-74
2022/12/22 22:51:48;;;;;;;;;;;;;;;;;;2196022;59;1154;-74
2022/12/22 22:54:21;;;;;;;;;;;;;;;;;;2195478;59;1223;-74
2022/12/22 22:56:57;;;;;;;;;;;;;;;;;;2196554;59;1255;-74
2022/12/22 22:59:30;;;;;;;;;;;;;;;;;;2196337;59;1296;-74
2022/12/22 23:02:04;;;;;;;;;;;;;;;;;;2197549;59;2444;-73
2022/12/22 23:04:37;;;;;;;;;;;;;;;;;;2196197;59;1929;-74
2022/12/22 23:07:10;;;;;;;;;;;;;;;;;;2192964;59;1204;-73
2022/12/22 23:09:43;;;;;;;;;;;;;;;;;;2193619;59;1399;-73
2022/12/22 23:12:19;;;;;;;;;;;;;;;;;;2194398;59;1366;-74